Time;durP1;ratioP1;P1;durP2;ratioP2;P2;SDS_P1;SDS_P2;PMS_P1;PMS_P2;Temp;Humidity;BMP_temperature;BMP_pressure;BME280_temperature;BME280_humidity;BME280_pressure;Samples;Min_cycle;Max_cycle;Signal;HPM_P1;HPM_P2
2021/03/27 00:02:25;;;;;;;3.60;1.17;;;8.50;99.90;;;;;;4989908;28;20029;-85
2021/03/27 00:05:10;;;;;;;0.25;0.25;;;8.50;99.90;;;;;;4987289;28;20034;-86
2021/03/27 00:07:44;;;;;;;0.88;0.65;;;8.50;99.90;;;;;;4986739;28;20390;-85
2021/03/27 00:10:10;;;;;;;0.30;0.30;;;8.50;1.00;;;;;;4991672;28;20467;-85
2021/03/27 00:13:05;;;;;;;0.30;0.30;;;8.30;99.90;;;;;;4979111;28;20078;-84
2021/03/27 00:15:39;;;;;;;0.25;0.25;;;8.40;99.90;;;;;;4986153;28;20042;-85
2021/03/27 00:18:35;;;;;;;0.30;0.30;;;8.40;99.90;;;;;;4988095;28;20023;-84
2021/03/27 00:21:18;;;;;;;0.00;0.00;;;8.40;99.90;;;;;;4987222;28;20039;-84
2021/03/27 00:23:49;;;;;;;0.05;0.05;;;8.40;99.90;;;;;;4988932;28;20461;-85
2021/03/27 00:26:23;;;;;;;0.13;0.13;;;8.50;99.90;;;;;;4989049;28;20027;-84
2021/03/27 00:29:16;;;;;;;0.28;0.28;;;8.40;99.90;;;;;;4986369;28;20035;-85
2021/03/27 00:31:50;;;;;;;0.28;0.28;;;8.30;99.90;;;;;;4987273;28;20027;-84
2021/03/27 00:34:21;;;;;;;0.00;0.00;;;8.30;99.90;;;;;;4989065;28;20029;-84
2021/03/27 00:36:54;;;;;;;1.65;0.63;;;8.30;99.90;;;;;;4985033;28;20037;-85
2021/03/27 00:39:30;;;;;;;0.57;0.57;;;8.30;99.90;;;;;;4987178;28;20022;-85
2021/03/27 00:42:01;;;;;;;0.47;0.47;;;8.30;99.90;;;;;;4987949;28;20030;-85
2021/03/27 00:44:35;;;;;;;0.63;0.63;;;8.30;99.90;;;;;;4988061;28;20410;-85
2021/03/27 00:47:02;;;;;;;0.20;0.20;;;8.30;99.90;;;;;;4981037;28;20038;-85
2021/03/27 00:49:52;;;;;;;0.25;0.25;;;8.40;99.90;;;;;;4987049;28;20431;-85
2021/03/27 00:52:20;;;;;;;0.20;0.20;;;8.30;99.90;;;;;;4984085;28;20058;-85
2021/03/27 00:55:02;;;;;;;0.20;0.20;;;8.40;99.90;;;;;;4988265;28;20027;-85
2021/03/27 00:57:33;;;;;;;0.43;0.43;;;8.30;99.90;;;;;;4986787;28;20034;-85
2021/03/27 01:00:17;;;;;;;0.57;0.55;;;8.20;99.90;;;;;;4987384;28;20081;-85
2021/03/27 01:02:50;;;;;;;1.75;1.65;;;8.20;99.90;;;;;;4982613;28;20037;-85
2021/03/27 01:05:24;;;;;;;1.30;1.02;;;8.30;99.90;;;;;;4989889;28;20026;-84
2021/03/27 01:07:51;;;;;;;1.20;1.10;;;8.20;99.90;;;;;;4985252;28;20034;-85
2021/03/27 01:10:20;;;;;;;;;;;8.00;99.90;;;;;;4988948;28;21393;-85
2021/03/27 01:12:49;;;;;;;0.80;0.63;;;8.00;99.90;;;;;;4989368;28;19957;-85
2021/03/27 01:15:23;;;;;;;1.35;0.77;;;7.90;99.90;;;;;;4985814;28;20031;-84
2021/03/27 01:17:52;;;;;;;3.47;1.15;;;7.70;99.90;;;;;;4985525;28;20148;-85
2021/03/27 01:20:21;;;;;;;0.35;0.35;;;7.70;99.90;;;;;;4988202;28;20473;-85
2021/03/27 01:22:48;;;;;;;0.32;0.32;;;7.50;99.90;;;;;;4986900;28;20038;-84
2021/03/27 01:25:20;;;;;;;0.00;0.00;;;7.50;99.90;;;;;;4987639;28;20111;-85
2021/03/27 01:28:01;;;;;;;0.38;0.38;;;7.40;99.90;;;;;;4974819;28;20525;-85
2021/03/27 01:30:39;;;;;;;1.55;1.08;;;7.20;99.90;;;;;;4982841;28;20065;-85
2021/03/27 01:33:37;;;;;;;0.20;0.17;;;7.10;99.90;;;;;;4984179;28;20113;-84
2021/03/27 01:36:11;;;;;;;0.20;0.20;;;7.20;99.90;;;;;;4980000;28;20031;-85
2021/03/27 01:38:45;;;;;;;0.20;0.20;;;7.10;99.90;;;;;;4984291;28;20037;-85
2021/03/27 01:41:20;;;;;;;0.65;0.65;;;7.10;99.90;;;;;;4987392;28;20033;-85
2021/03/27 01:43:48;;;;;;;0.00;0.00;;;6.90;99.90;;;;;;4987690;28;20030;-85
2021/03/27 01:46:32;;;;;;;0.10;0.10;;;6.90;99.90;;;;;;4988389;28;20053;-85
2021/03/27 01:49:12;;;;;;;0.32;0.32;;;6.60;99.90;;;;;;4986224;28;20402;-84
2021/03/27 01:52:02;;;;;;;0.00;0.00;;;6.50;99.90;;;;;;4988595;28;20041;-85
2021/03/27 01:54:36;;;;;;;0.08;0.08;;;6.60;99.90;;;;;;4986613;28;20545;-85
2021/03/27 01:57:19;;;;;;;0.00;0.00;;;6.40;99.90;;;;;;4983146;28;20053;-85
2021/03/27 02:00:07;;;;;;;0.10;0.10;;;6.50;99.90;;;;;;4986544;28;20058;-86
2021/03/27 02:02:59;;;;;;;0.68;0.68;;;6.30;99.90;;;;;;4987053;28;20042;-85
2021/03/27 02:05:35;;;;;;;0.00;0.00;;;6.30;99.90;;;;;;4988187;28;20027;-85
2021/03/27 02:08:22;;;;;;;0.52;0.52;;;6.00;99.90;;;;;;4988534;28;20034;-85
2021/03/27 02:11:08;;;;;;;0.90;0.85;;;6.10;99.90;;;;;;4984506;28;20030;-84
2021/03/27 02:14:08;;;;;;;0.35;0.35;;;5.80;99.90;;;;;;4982185;28;20034;-84
2021/03/27 02:16:51;;;;;;;0.10;0.10;;;5.90;99.90;;;;;;4985992;28;20058;-84
2021/03/27 02:19:34;;;;;;;0.15;0.15;;;5.80;99.90;;;;;;4987417;28;20050;-84
2021/03/27 02:22:13;;;;;;;0.05;0.05;;;5.70;99.90;;;;;;4983169;28;20525;-85
2021/03/27 02:25:08;;;;;;;0.00;0.00;;;5.80;99.90;;;;;;4987002;28;20682;-84
2021/03/27 02:27:51;;;;;;;0.00;0.00;;;5.80;99.90;;;;;;4982976;28;20035;-85
2021/03/27 02:30:34;;;;;;;0.00;0.00;;;5.60;99.90;;;;;;4986991;28;20495;-85
2021/03/27 02:33:10;;;;;;;1.13;0.65;;;5.40;99.90;;;;;;4984414;28;20117;-85
2021/03/27 02:35:45;;;;;;;;;;;5.20;99.90;;;;;;4988031;28;20023;-85
2021/03/27 02:38:35;;;;;;;0.75;0.75;;;5.00;99.90;;;;;;4985022;28;19913;-85
2021/03/27 02:41:04;;;;;;;0.63;0.63;;;5.00;99.90;;;;;;4988518;28;20089;-84
2021/03/27 02:43:40;;;;;;;0.00;0.00;;;5.10;99.90;;;;;;4986301;28;20034;-85
2021/03/27 02:46:11;;;;;;;0.25;0.25;;;5.00;99.90;;;;;;4990945;28;20026;-85
2021/03/27 02:48:55;;;;;;;3.15;1.08;;;5.30;99.90;;;;;;4984924;28;20026;-85
2021/03/27 02:51:35;;;;;;;0.47;0.47;;;5.10;99.90;;;;;;4989798;28;20030;-85
2021/03/27 02:54:28;;;;;;;0.10;0.10;;;5.00;99.90;;;;;;4991825;28;20406;-85
2021/03/27 02:57:03;;;;;;;0.00;0.00;;;5.00;99.90;;;;;;4985574;28;20490;-86
2021/03/27 02:59:51;;;;;;;0.63;0.63;;;4.90;99.90;;;;;;4991590;28;20022;-85
2021/03/27 03:02:50;;;;;;;0.20;0.20;;;4.80;99.90;;;;;;4991350;28;20030;-86
2021/03/27 03:05:50;;;;;;;0.10;0.10;;;4.90;99.90;;;;;;4989008;28;20021;-86
2021/03/27 03:08:31;;;;;;;0.10;0.10;;;5.20;99.90;;;;;;4986952;28;20027;-86
2021/03/27 03:11:09;;;;;;;0.38;0.38;;;5.40;99.90;;;;;;4987775;28;20022;-85
2021/03/27 03:13:59;;;;;;;0.03;0.03;;;5.40;99.90;;;;;;4990557;28;20114;-86
2021/03/27 03:16:36;;;;;;;0.40;0.38;;;5.50;99.90;;;;;;4992967;28;20096;-85
2021/03/27 03:19:11;;;;;;;0.43;0.25;;;5.50;99.90;;;;;;4989893;28;20109;-85
2021/03/27 03:22:09;;;;;;;2.75;0.47;;;5.40;99.90;;;;;;4993108;28;20030;-84
2021/03/27 03:24:42;;;;;;;0.10;0.10;;;5.40;99.90;;;;;;4973064;28;20042;-85
2021/03/27 03:27:22;;;;;;;0.45;0.45;;;5.40;99.90;;;;;;4989508;28;20050;-86
2021/03/27 03:30:00;;;;;;;0.08;0.08;;;5.20;99.90;;;;;;4988321;28;20041;-85
2021/03/27 03:32:37;;;;;;;0.10;0.10;;;5.30;99.90;;;;;;4988922;28;20105;-85
2021/03/27 03:35:22;;;;;;;0.25;0.25;;;5.50;99.90;;;;;;4990700;28;20056;-85
2021/03/27 03:38:19;;;;;;;0.10;0.10;;;5.40;99.90;;;;;;4989700;28;20034;-85
2021/03/27 03:41:06;;;;;;;0.10;0.10;;;5.30;99.90;;;;;;4990436;28;20037;-85
2021/03/27 03:43:49;;;;;;;0.32;0.32;;;5.30;99.90;;;;;;4987994;28;20046;-85
2021/03/27 03:46:21;;;;;;;0.10;0.10;;;5.30;99.90;;;;;;4993905;28;20921;-85
2021/03/27 03:49:02;;;;;;;0.63;0.63;;;5.30;99.90;;;;;;4990981;28;20111;-85
2021/03/27 03:51:45;;;;;;;0.10;0.10;;;5.50;99.90;;;;;;4996631;28;20022;-85
2021/03/27 03:54:33;;;;;;;0.38;0.30;;;5.40;99.90;;;;;;4991311;28;20038;-85
2021/03/27 03:57:16;;;;;;;0.10;0.10;;;5.50;99.90;;;;;;4983454;28;20026;-84
2021/03/27 03:59:56;;;;;;;0.10;0.10;;;5.50;99.90;;;;;;4990677;28;20066;-85
2021/03/27 04:02:43;;;;;;;0.10;0.10;;;5.30;99.90;;;;;;4989501;28;20030;-85
2021/03/27 04:05:18;;;;;;;0.10;0.10;;;5.30;99.90;;;;;;4990682;28;20129;-85
2021/03/27 04:08:09;;;;;;;0.10;0.10;;;5.30;99.90;;;;;;4992226;28;20058;-85
2021/03/27 04:10:36;;;;;;;1.35;1.25;;;5.20;99.90;;;;;;4990157;28;20030;-84
2021/03/27 04:13:14;;;;;;;;;;;5.20;99.90;;;;;;4991140;28;20100;-85
2021/03/27 04:16:12;;;;;;;0.20;0.20;;;5.30;99.90;;;;;;4995891;28;19925;-84
2021/03/27 04:18:51;;;;;;;0.30;0.30;;;5.30;99.90;;;;;;4988939;28;20133;-84
2021/03/27 04:21:23;;;;;;;0.10;0.10;;;5.10;99.90;;;;;;4984382;28;20557;-86
2021/03/27 04:24:10;;;;;;;0.10;0.10;;;5.00;99.90;;;;;;4985370;28;20031;-86
2021/03/27 04:26:35;;;;;;;;;;;4.90;99.90;;;;;;4981270;28;20086;-85
2021/03/27 04:29:32;;;;;;;0.10;0.10;;;4.90;99.90;;;;;;4989167;28;19910;-85
2021/03/27 04:32:35;;;;;;;0.05;0.05;;;5.00;99.90;;;;;;4989756;28;20030;-85
2021/03/27 04:35:13;;;;;;;0.25;0.25;;;5.10;99.90;;;;;;4980884;28;20037;-84
2021/03/27 04:38:07;;;;;;;0.00;0.00;;;5.00;99.90;;;;;;4990280;28;20022;-85
2021/03/27 04:40:52;;;;;;;0.10;0.10;;;4.90;99.90;;;;;;4985020;28;20380;-85
2021/03/27 04:43:26;;;;;;;0.10;0.10;;;4.70;99.90;;;;;;4988935;28;20026;-85
2021/03/27 04:46:19;;;;;;;0.10;0.10;;;4.80;99.90;;;;;;4989711;28;20033;-85
2021/03/27 04:48:54;;;;;;;0.30;0.30;;;4.80;99.90;;;;;;4982599;28;20470;-85
2021/03/27 04:51:20;;;;;;;0.10;0.10;;;4.70;99.90;;;;;;4988048;28;20375;-85
2021/03/27 04:54:10;;;;;;;0.22;0.20;;;4.80;99.90;;;;;;4989915;28;20038;-85
2021/03/27 04:57:10;;;;;;;0.10;0.10;;;4.80;99.90;;;;;;4994470;28;20068;-85
2021/03/27 04:59:54;;;;;;;0.10;0.10;;;5.00;99.90;;;;;;4987849;28;20034;-85
2021/03/27 05:02:36;;;;;;;0.10;0.10;;;5.00;99.90;;;;;;4988198;28;20022;-84
2021/03/27 05:05:26;;;;;;;0.00;0.00;;;5.00;99.90;;;;;;4990303;28;20121;-84
2021/03/27 05:08:13;;;;;;;0.00;0.00;;;4.90;99.90;;;;;;4989385;28;20088;-85
2021/03/27 05:10:39;;;;;;;0.10;0.10;;;4.80;99.90;;;;;;4993577;28;20036;-85
2021/03/27 05:13:26;;;;;;;0.10;0.10;;;5.00;99.90;;;;;;4997159;28;20120;-85
2021/03/27 05:16:15;;;;;;;0.10;0.10;;;4.90;99.90;;;;;;4993854;28;20072;-85
2021/03/27 05:18:57;;;;;;;0.22;0.22;;;4.70;99.90;;;;;;4985594;28;20050;-85
2021/03/27 05:21:36;;;;;;;0.30;0.30;;;4.80;99.90;;;;;;4989046;28;20034;-85
2021/03/27 05:24:14;;;;;;;0.00;0.00;;;4.80;99.90;;;;;;4988951;28;20477;-85
2021/03/27 05:27:04;;;;;;;0.00;0.00;;;4.90;99.90;;;;;;4982563;28;20145;-84
2021/03/27 05:30:11;;;;;;;0.10;0.10;;;4.60;99.90;;;;;;4985771;28;20391;-86
2021/03/27 05:32:56;;;;;;;0.10;0.10;;;4.40;99.90;;;;;;4931122;29;20048;-85
2021/03/27 05:35:47;;;;;;;0.10;0.10;;;4.20;99.90;;;;;;4924885;29;20040;-85
2021/03/27 05:38:28;;;;;;;0.30;0.30;;;4.20;99.90;;;;;;4924152;29;20645;-85
2021/03/27 05:41:08;;;;;;;0.10;0.10;;;4.20;99.90;;;;;;4930097;29;20031;-85
2021/03/27 05:44:12;;;;;;;0.10;0.10;;;4.30;99.90;;;;;;4926590;29;20421;-85
2021/03/27 05:46:47;;;;;;;0.10;0.10;;;4.30;99.90;;;;;;4928504;29;20056;-85
2021/03/27 05:50:00;;;;;;;0.10;0.10;;;4.30;99.90;;;;;;4931045;29;20043;-84
2021/03/27 05:52:38;;;;;;;2.80;1.65;;;4.30;99.90;;;;;;4928244;29;20047;-85
2021/03/27 05:55:25;;;;;;;0.40;0.40;;;4.30;99.90;;;;;;4928358;29;20792;-85
2021/03/27 05:58:16;;;;;;;0.77;0.77;;;4.40;99.90;;;;;;4927594;29;20036;-85
2021/03/27 06:01:16;;;;;;;0.20;0.20;;;4.50;99.90;;;;;;4923298;29;20067;-86
2021/03/27 06:03:51;;;;;;;0.10;0.10;;;4.90;99.90;;;;;;4852930;29;20422;-85
2021/03/27 06:06:32;;;;;;;0.00;0.00;;;5.50;99.90;;;;;;4853262;29;20201;-86
2021/03/27 06:09:19;;;;;;;0.10;0.10;;;6.10;99.90;;;;;;4903262;29;20075;-85
2021/03/27 06:11:56;;;;;;;0.05;0.05;;;6.90;99.90;;;;;;4914451;29;20037;-85
2021/03/27 06:14:37;;;;;;;0.50;0.50;;;7.50;99.90;;;;;;4913827;29;20416;-87
2021/03/27 06:17:23;;;;;;;0.80;0.80;;;8.10;99.90;;;;;;4918773;29;20060;-86
2021/03/27 06:20:18;;;;;;;0.10;0.10;;;9.10;99.90;;;;;;4901463;29;20032;-87
2021/03/27 06:22:46;;;;;;;0.15;0.15;;;10.20;99.90;;;;;;4908145;29;20078;-86
2021/03/27 06:25:36;;;;;;;0.20;0.20;;;10.60;99.90;;;;;;4920161;29;20036;-86
2021/03/27 06:28:26;;;;;;;0.00;0.00;;;10.90;99.90;;;;;;4911041;29;20039;-88
2021/03/27 06:31:28;;;;;;;0.00;0.00;;;10.90;99.90;;;;;;4920608;29;20495;-86
2021/03/27 06:34:06;;;;;;;0.05;0.05;;;11.00;99.90;;;;;;4914474;29;20095;-87
2021/03/27 06:36:59;;;;;;;13.95;0.40;;;11.30;99.90;;;;;;4912421;29;20079;-87
2021/03/27 06:39:38;;;;;;;0.03;0.03;;;11.30;99.90;;;;;;4925239;29;20043;-86
2021/03/27 06:42:17;;;;;;;0.30;0.30;;;11.40;99.90;;;;;;4987130;28;20018;-87
2021/03/27 06:44:58;;;;;;;0.10;0.10;;;12.00;99.90;;;;;;4983229;28;20038;-87
2021/03/27 06:47:50;;;;;;;0.10;0.10;;;12.50;99.90;;;;;;4985500;28;20380;-87
2021/03/27 06:50:25;;;;;;;0.10;0.10;;;12.60;99.90;;;;;;4985049;28;20124;-88
2021/03/27 06:53:10;;;;;;;0.10;0.10;;;13.60;99.90;;;;;;4986530;28;20026;-88
2021/03/27 06:56:37;;;;;;;0.10;0.10;;;13.50;99.90;;;;;;4977518;28;20109;-88
2021/03/27 06:59:26;;;;;;;0.00;0.00;;;13.70;99.90;;;;;;4938867;29;20210;-88
2021/03/27 07:02:03;;;;;;;0.10;0.10;;;14.20;99.90;;;;;;4942107;29;20134;-87
2021/03/27 07:04:41;;;;;;;;;;;13.80;99.90;;;;;;4945821;29;20031;-87
2021/03/27 07:07:09;;;;;;;0.20;0.20;;;13.50;99.90;;;;;;4939337;29;20291;-88
2021/03/27 07:09:44;;;;;;;0.10;0.10;;;13.40;99.90;;;;;;4930511;29;20031;-87
2021/03/27 07:12:31;;;;;;;0.20;0.20;;;14.70;99.90;;;;;;4945087;29;20055;-88
2021/03/27 07:15:24;;;;;;;0.10;0.10;;;13.90;99.90;;;;;;4945392;28;20051;-87
2021/03/27 07:17:56;;;;;;;1.85;1.58;;;14.10;99.90;;;;;;4949000;28;20055;-86
2021/03/27 07:20:56;;;;;;;0.10;0.10;;;14.30;99.90;;;;;;4925398;29;20118;-86
2021/03/27 07:23:24;;;;;;;0.10;0.10;;;14.90;99.90;;;;;;4949154;28;20488;-87
2021/03/27 07:26:06;;;;;;;0.10;0.10;;;14.80;99.90;;;;;;4951724;28;20482;-87
2021/03/27 07:29:01;;;;;;;0.10;0.10;;;15.10;99.90;;;;;;4948897;28;20039;-87
2021/03/27 07:31:44;;;;;;;0.10;0.10;;;15.20;99.90;;;;;;4942475;28;20035;-87
2021/03/27 07:34:35;;;;;;;0.05;0.05;;;14.40;99.90;;;;;;4970455;28;20113;-87
2021/03/27 07:37:16;;;;;;;0.00;0.00;;;14.30;99.90;;;;;;4990952;28;20037;-87
2021/03/27 07:40:22;;;;;;;0.10;0.10;;;15.00;99.90;;;;;;4992141;28;20030;-87
2021/03/27 07:43:26;;;;;;;3.05;0.43;;;14.90;99.90;;;;;;4994781;28;20172;-87
2021/03/27 07:46:16;;;;;;;0.10;0.10;;;14.80;99.90;;;;;;4962350;28;20031;-87
2021/03/27 07:49:16;;;;;;;0.10;0.10;;;14.70;99.90;;;;;;4952098;28;20035;-86
2021/03/27 07:51:54;;;;;;;0.10;0.10;;;15.20;99.90;;;;;;4949998;28;20050;-86
2021/03/27 07:54:39;;;;;;;0.75;0.68;;;15.30;99.90;;;;;;4947879;28;20034;-87
2021/03/27 07:57:35;;;;;;;0.63;0.63;;;15.30;99.90;;;;;;4961042;28;20126;-87
2021/03/27 08:00:12;;;;;;;1.63;1.13;;;15.70;99.90;;;;;;4963895;28;20759;-87
2021/03/27 08:03:15;;;;;;;1.90;0.70;;;15.80;99.90;;;;;;4948486;28;20726;-87
2021/03/27 08:06:10;;;;;;;0.10;0.10;;;15.30;99.90;;;;;;4961425;28;20443;-87
2021/03/27 08:09:14;;;;;;;0.10;0.10;;;15.80;99.90;;;;;;4961317;28;20157;-87
2021/03/27 08:11:59;;;;;;;0.30;0.30;;;15.20;99.90;;;;;;4963420;28;20034;-87
2021/03/27 08:14:44;;;;;;;0.60;0.60;;;15.40;99.90;;;;;;4958437;28;20539;-84
2021/03/27 08:17:44;;;;;;;0.22;0.22;;;14.90;99.90;;;;;;4971678;28;20124;-86
2021/03/27 08:20:22;;;;;;;0.00;0.00;;;15.20;99.90;;;;;;4986989;28;20030;-84
2021/03/27 08:23:07;;;;;;;0.00;0.00;;;15.30;99.90;;;;;;4982999;28;20624;-84
2021/03/27 08:26:12;;;;;;;0.25;0.25;;;15.00;99.90;;;;;;4992237;28;20036;-84
2021/03/27 08:29:28;;;;;;;1.20;0.75;;;13.70;99.90;;;;;;4955534;28;20593;-85
2021/03/27 08:32:06;;;;;;;0.52;0.45;;;13.50;99.90;;;;;;4891234;29;20836;-86
2021/03/27 08:35:04;;;;;;;0.17;0.17;;;11.30;99.90;;;;;;4882844;29;20108;-86
2021/03/27 08:37:56;;;;;;;0.10;0.10;;;15.20;99.90;;;;;;4894866;29;20099;-87
2021/03/27 08:41:13;;;;;;;0.35;0.35;;;17.70;99.90;;;;;;4899404;29;20576;-86
2021/03/27 08:43:51;;;;;;;0.10;0.10;;;16.50;99.90;;;;;;4892123;29;20051;-85
2021/03/27 08:46:23;;;;;;;0.40;0.40;;;18.00;99.90;;;;;;4900444;29;20032;-85
2021/03/27 08:49:13;;;;;;;0.30;0.30;;;18.40;99.90;;;;;;4897290;29;20047;-85
2021/03/27 08:52:07;;;;;;;0.43;0.43;;;18.10;99.90;;;;;;4892867;29;20032;-86
2021/03/27 08:55:18;;;;;;;0.00;0.00;;;20.10;99.90;;;;;;4892320;29;20036;-85
2021/03/27 08:58:14;;;;;;;8.07;0.30;;;22.20;99.90;;;;;;4847676;29;20156;-87
2021/03/27 09:01:08;;;;;;;1.30;0.55;;;21.80;99.90;;;;;;4841822;29;20090;-86
2021/03/27 09:03:58;;;;;;;2.85;0.25;;;19.30;99.90;;;;;;4835939;29;20038;-87
2021/03/27 09:06:34;;;;;;;0.20;0.20;;;19.50;99.90;;;;;;4842842;29;20037;-86
2021/03/27 09:09:21;;;;;;;0.43;0.35;;;14.20;99.90;;;;;;4899998;29;20078;-86
2021/03/27 09:12:11;;;;;;;0.20;0.20;;;12.20;99.90;;;;;;4925620;29;20027;-85
2021/03/27 09:15:03;;;;;;;0.00;0.00;;;13.30;99.90;;;;;;4921371;29;20926;-87
2021/03/27 09:17:38;;;;;;;0.13;0.13;;;21.00;99.90;;;;;;4927490;29;20052;-87
2021/03/27 09:20:37;;;;;;;0.10;0.10;;;24.90;99.90;;;;;;4912236;29;20921;-87
2021/03/27 09:23:03;;;;;;;0.10;0.10;;;26.00;99.90;;;;;;4925271;29;20039;-86
2021/03/27 09:25:50;;;;;;;0.10;0.10;;;22.50;99.90;;;;;;4906923;29;20637;-87
2021/03/27 09:28:51;;;;;;;0.00;0.00;;;26.50;99.90;;;;;;4933277;29;20050;-86
2021/03/27 09:31:50;;;;;;;0.20;0.20;;;21.70;99.90;;;;;;4887650;29;20046;-86
2021/03/27 09:34:23;;;;;;;0.47;0.47;;;20.40;99.90;;;;;;4949503;28;20108;-87
2021/03/27 09:37:13;;;;;;;0.10;0.10;;;24.00;98.80;;;;;;4987476;28;20022;-86
2021/03/27 09:40:02;;;;;;;0.35;0.35;;;24.60;96.40;;;;;;4992235;28;20649;-86
2021/03/27 09:43:19;;;;;;;0.20;0.20;;;24.00;99.90;;;;;;4987609;28;20026;-87
2021/03/27 09:46:03;;;;;;;1.02;1.02;;;22.20;99.90;;;;;;4955642;28;20113;-90
2021/03/27 09:49:07;;;;;;;0.03;0.03;;;24.30;98.40;;;;;;4954675;28;20065;-86
2021/03/27 09:51:42;;;;;;;0.55;0.30;;;25.30;96.20;;;;;;4899319;29;20460;-86
2021/03/27 09:54:38;;;;;;;5.25;0.90;;;21.00;97.00;;;;;;4909003;29;20090;-87
2021/03/27 09:57:11;;;;;;;;;;;17.60;99.90;;;;;;4908260;29;20040;-86
2021/03/27 09:59:47;;;;;;;0.20;0.20;;;15.20;99.90;;;;;;4906610;29;19915;-86
2021/03/27 10:02:24;;;;;;;1.27;1.15;;;14.70;99.90;;;;;;4903169;29;20153;-86
2021/03/27 10:05:04;;;;;;;0.85;0.75;;;14.30;99.90;;;;;;4892168;29;20032;-86
2021/03/27 10:07:51;;;;;;;0.30;0.30;;;14.20;99.90;;;;;;4906402;29;20055;-86
2021/03/27 10:10:20;;;;;;;0.00;0.00;;;14.20;99.90;;;;;;4905532;29;20039;-85
2021/03/27 10:13:27;;;;;;;0.28;0.28;;;13.70;99.90;;;;;;4909970;29;20684;-85
2021/03/27 10:15:58;;;;;;;0.10;0.10;;;17.10;99.90;;;;;;4881978;29;20041;-86
2021/03/27 10:18:49;;;;;;;0.10;0.10;;;22.60;99.50;;;;;;4896061;29;20044;-85
2021/03/27 10:21:27;;;;;;;0.45;0.45;;;25.90;95.40;;;;;;4866480;29;20493;-87
2021/03/27 10:24:19;;;;;;;0.10;0.10;;;25.30;96.30;;;;;;4862294;29;20139;-86
2021/03/27 10:26:50;;;;;;;0.10;0.10;;;26.10;96.80;;;;;;4871199;29;20111;-86
2021/03/27 10:29:35;;;;;;;0.10;0.10;;;24.90;92.60;;;;;;4918651;29;20731;-86
2021/03/27 10:32:26;;;;;;;0.10;0.10;;;21.90;96.90;;;;;;4926953;29;20038;-86
2021/03/27 10:35:18;;;;;;;0.10;0.10;;;20.40;98.20;;;;;;4924853;29;20038;-86
2021/03/27 10:37:55;;;;;;;0.10;0.10;;;20.20;99.90;;;;;;4926634;29;20043;-85
2021/03/27 10:40:33;;;;;;;0.45;0.45;;;23.80;92.60;;;;;;4928649;29;20067;-85
2021/03/27 10:43:14;;;;;;;0.05;0.05;;;25.30;92.60;;;;;;4928233;29;20045;-84
2021/03/27 10:46:14;;;;;;;0.00;0.00;;;26.00;92.80;;;;;;4907972;29;20079;-84
2021/03/27 10:49:11;;;;;;;0.35;0.35;;;27.20;91.50;;;;;;4924709;29;20188;-85
2021/03/27 10:52:14;;;;;;;0.20;0.20;;;26.70;91.10;;;;;;4927603;29;20031;-85
2021/03/27 10:54:56;;;;;;;0.10;0.10;;;25.30;95.70;;;;;;4986488;28;20544;-85
2021/03/27 10:57:43;;;;;;;0.30;0.30;;;17.30;98.00;;;;;;4988668;28;20514;-84
2021/03/27 11:00:24;;;;;;;0.10;0.10;;;18.50;99.10;;;;;;4983967;28;20055;-84
2021/03/27 11:03:21;;;;;;;0.00;0.00;;;16.60;97.40;;;;;;4991418;28;20031;-84
2021/03/27 11:06:32;;;;;;;0.10;0.10;;;17.10;99.40;;;;;;4988250;28;20088;-84
2021/03/27 11:09:38;;;;;;;0.10;0.10;;;24.20;93.70;;;;;;4990394;28;20522;-84
2021/03/27 11:12:33;;;;;;;0.40;0.40;;;23.70;91.80;;;;;;4984122;28;20109;-84
2021/03/27 11:15:32;;;;;;;0.57;0.57;;;25.00;92.70;;;;;;4986845;28;20073;-85
2021/03/27 11:18:25;;;;;;;0.22;0.22;;;22.60;95.40;;;;;;4987226;28;20050;-84
2021/03/27 11:21:31;;;;;;;15.32;0.47;;;22.80;93.50;;;;;;4982135;28;20101;-84
2021/03/27 11:24:04;;;;;;;0.10;0.10;;;25.90;90.90;;;;;;4985260;28;20061;-85
2021/03/27 11:26:49;;;;;;;0.10;0.10;;;25.00;91.90;;;;;;4992332;28;20069;-86
2021/03/27 11:29:50;;;;;;;0.10;0.10;;;25.30;92.40;;;;;;4990837;28;20026;-83
2021/03/27 11:32:27;;;;;;;0.08;0.08;;;23.10;94.10;;;;;;4979896;28;20089;-83
2021/03/27 11:35:22;;;;;;;0.10;0.10;;;22.80;92.70;;;;;;4998146;28;20026;-83
2021/03/27 11:38:00;;;;;;;0.10;0.10;;;22.30;92.90;;;;;;4989651;28;20134;-83
2021/03/27 11:40:41;;;;;;;0.10;0.10;;;22.00;92.40;;;;;;4989893;28;20128;-86
2021/03/27 11:43:13;;;;;;;0.30;0.30;;;20.10;93.50;;;;;;4983716;28;20037;-85
2021/03/27 11:45:48;;;;;;;0.13;0.13;;;14.50;99.20;;;;;;4989773;28;20057;-83
2021/03/27 11:48:27;;;;;;;0.10;0.10;;;13.40;99.90;;;;;;4983183;28;20033;-87
2021/03/27 11:51:08;;;;;;;0.50;0.50;;;14.10;99.90;;;;;;4989533;28;20026;-86
2021/03/27 11:53:44;;;;;;;4.57;0.80;;;14.40;99.90;;;;;;4989234;28;20057;-85
2021/03/27 11:56:22;;;;;;;4.38;0.90;;;14.50;99.80;;;;;;4988806;28;20023;-85
2021/03/27 12:02:12;;;;;;;0.10;0.10;;;14.60;99.90;;;;;;4986675;28;20099;-86
2021/03/27 12:04:50;;;;;;;0.10;0.10;;;14.30;99.90;;;;;;4991793;28;20110;-85
2021/03/27 12:07:34;;;;;;;0.30;0.30;;;14.30;99.90;;;;;;4992237;28;20026;-85
2021/03/27 12:10:38;;;;;;;0.10;0.10;;;13.90;99.90;;;;;;4988994;28;20105;-87
2021/03/27 12:13:20;;;;;;;0.20;0.20;;;14.30;99.90;;;;;;4991642;28;20898;-85
2021/03/27 12:16:07;;;;;;;0.10;0.10;;;14.20;99.90;;;;;;4989361;28;20438;-83
2021/03/27 12:18:45;;;;;;;;;;;13.50;99.90;;;;;;4987745;28;20034;-83
2021/03/27 12:21:32;;;;;;;0.20;0.20;;;13.60;99.90;;;;;;4991094;28;19920;-85
2021/03/27 12:24:22;;;;;;;0.10;0.10;;;13.70;99.90;;;;;;4982445;28;20086;-84
2021/03/27 12:27:03;;;;;;;0.43;0.43;;;14.00;99.90;;;;;;4984390;28;20074;-86
2021/03/27 12:29:40;;;;;;;0.10;0.10;;;13.00;99.90;;;;;;4984971;28;20097;-84
2021/03/27 12:32:27;;;;;;;0.10;0.10;;;12.70;99.90;;;;;;4986762;28;20034;-83
2021/03/27 12:34:55;;;;;;;;;;;13.00;99.90;;;;;;4985402;28;20022;-86
2021/03/27 12:37:39;;;;;;;0.22;0.22;;;13.30;99.90;;;;;;4980760;28;19921;-86
2021/03/27 12:40:39;;;;;;;0.13;0.13;;;13.30;99.90;;;;;;4982143;28;20042;-85
2021/03/27 12:43:17;;;;;;;0.45;0.45;;;13.20;99.90;;;;;;4986852;28;20073;-87
2021/03/27 12:46:11;;;;;;;0.45;0.45;;;13.50;99.90;;;;;;4988097;28;20081;-86
2021/03/27 12:48:58;;;;;;;0.15;0.15;;;13.90;99.90;;;;;;4970206;28;20033;-86
2021/03/27 12:52:02;;;;;;;0.10;0.10;;;14.00;99.90;;;;;;4972882;28;20408;-88
2021/03/27 12:54:40;;;;;;;0.20;0.20;;;13.70;99.90;;;;;;4890938;29;20078;-85
2021/03/27 12:57:09;;;;;;;0.10;0.10;;;14.10;99.90;;;;;;4891234;29;20093;-85
2021/03/27 12:59:40;;;;;;;0.10;0.10;;;13.80;99.90;;;;;;4903305;29;20044;-86
2021/03/27 13:02:42;;;;;;;0.10;0.10;;;13.60;99.90;;;;;;4889813;29;20111;-86
2021/03/27 13:05:35;;;;;;;0.55;0.55;;;13.60;99.90;;;;;;4898370;29;20048;-85
2021/03/27 13:08:31;;;;;;;0.10;0.10;;;13.80;99.90;;;;;;4900840;29;20028;-86
2021/03/27 13:11:07;;;;;;;;;;;13.50;99.90;;;;;;4898923;29;20036;-86
2021/03/27 13:13:35;;;;;;;0.05;0.05;;;13.30;99.90;;;;;;4905264;29;19918;-86
2021/03/27 13:16:18;;;;;;;13.77;0.50;;;13.10;99.90;;;;;;4900278;29;20044;-86
2021/03/27 13:19:08;;;;;;;0.43;0.35;;;13.40;99.90;;;;;;4900186;29;20509;-86
2021/03/27 13:22:05;;;;;;;0.10;0.10;;;13.40;99.90;;;;;;4900012;29;20036;-87
2021/03/27 13:24:33;;;;;;;2.92;0.43;;;13.60;99.90;;;;;;4898886;29;20047;-85
2021/03/27 13:27:15;;;;;;;0.20;0.10;;;13.70;99.90;;;;;;4933242;29;20086;-86
2021/03/27 13:29:47;;;;;;;0.20;0.20;;;13.80;99.90;;;;;;4929619;28;20475;-86
2021/03/27 13:32:16;;;;;;;0.25;0.25;;;13.30;99.90;;;;;;4984018;28;20954;-86
2021/03/27 13:34:55;;;;;;;0.10;0.10;;;13.40;99.90;;;;;;4987280;28;21663;-86
2021/03/27 13:37:47;;;;;;;0.00;0.00;;;13.40;99.90;;;;;;4983660;28;20064;-87
2021/03/27 13:40:23;;;;;;;0.10;0.10;;;13.10;99.90;;;;;;4991856;28;20026;-86
2021/03/27 13:42:55;;;;;;;0.10;0.10;;;12.80;99.90;;;;;;4996834;28;20022;-86
2021/03/27 13:45:57;;;;;;;0.10;0.10;;;13.00;99.90;;;;;;4995406;28;20022;-87
2021/03/27 13:48:28;;;;;;;0.35;0.35;;;13.30;99.90;;;;;;4971097;28;20430;-87
2021/03/27 13:51:16;;;;;;;0.10;0.10;;;13.10;99.90;;;;;;4974947;28;20026;-86
2021/03/27 13:54:01;;;;;;;0.52;0.52;;;13.80;99.90;;;;;;4980994;28;20384;-87
2021/03/27 13:56:29;;;;;;;0.52;0.20;;;13.50;99.90;;;;;;4988496;28;20034;-86
2021/03/27 13:58:55;;;;;;;0.10;0.10;;;13.40;99.90;;;;;;4987383;28;20035;-86
2021/03/27 14:01:36;;;;;;;0.10;0.10;;;13.20;99.90;;;;;;4989407;28;20387;-86
2021/03/27 14:04:05;;;;;;;0.65;0.45;;;13.20;99.90;;;;;;4980102;28;20549;-85
2021/03/27 14:06:56;;;;;;;0.20;0.20;;;13.60;99.90;;;;;;4979516;28;20031;-86
2021/03/27 14:09:51;;;;;;;0.15;0.15;;;13.20;99.90;;;;;;4983281;28;20023;-86
2021/03/27 14:12:32;;;;;;;0.10;0.10;;;13.10;99.90;;;;;;4972978;28;20033;-86
2021/03/27 14:15:03;;;;;;;1.02;0.68;;;13.10;99.90;;;;;;4974895;28;20304;-86
2021/03/27 14:18:03;;;;;;;0.32;0.32;;;13.10;99.90;;;;;;4978541;28;20042;-87
2021/03/27 14:20:40;;;;;;;0.30;0.30;;;13.30;99.90;;;;;;4981874;28;20022;-86
2021/03/27 14:23:31;;;;;;;0.10;0.10;;;13.10;99.90;;;;;;4987472;28;20469;-86
2021/03/27 14:26:13;;;;;;;0.55;0.55;;;12.90;99.90;;;;;;5000328;28;20026;-86